CST,Max TemperatureF,Mean TemperatureF,Min TemperatureF,Max Dew PointF,MeanDew PointF,Min DewpointF,Max Humidity, Mean Humidity, Min Humidity, Max Sea Level PressureIn, Mean Sea Level PressureIn, Min Sea Level PressureIn, Max VisibilityMiles, Mean VisibilityMiles, Min VisibilityMiles, Max Wind SpeedMPH, Mean Wind SpeedMPH, Max Gust SpeedMPH,PrecipitationIn, CloudCover, Events, WindDirDegrees
2012-12-1,84,67,50,45,40,36,66,40,20,30.35,30.14,29.80,10,8,6,10,1,,0.00,2,,186
2012-12-2,82,66,51,39,38,37,62,35,20,30.36,30.15,29.82,10,9,8,9,2,,0.00,2,,257
2012-12-3,80,64,48,41,37,34,66,40,18,30.33,30.15,29.79,10,9,7,10,3,,0.00,4,,289
2012-12-4,84,66,48,45,35,30,66,35,15,30.35,30.16,29.84,10,9,8,10,2,,0.00,4,,62
2012-12-5,80,66,51,43,35,27,52,36,14,30.38,30.16,29.88,10,9,8,14,3,,0.00,2,,61
2012-12-6,82,63,44,48,36,30,76,44,18,30.27,30.09,29.78,10,9,8,9,4,,0.00,0,,356
2012-12-7,78,61,44,39,34,32,61,41,20,30.21,30.06,29.83,10,8,6,8,2,,0.00,3,,342
2012-12-8,77,60,42,36,33,32,70,42,21,30.21,30.05,29.69,10,9,8,12,3,,0.00,4,,292
2012-12-9,80,62,44,43,37,34,66,45,26,30.27,30.08,29.81,10,8,6,16,2,,0.00,3,,265
2012-12-10,75,60,44,39,35,32,62,43,23,30.24,30.09,29.81,10,9,8,7,3,,0.00,4,,170
2012-12-11,69,61,53,52,45,39,82,59,43,30.24,30.07,29.78,10,8,6,12,3,,0.00,7,,132
2012-12-12,80,62,44,46,41,34,100,54,21,30.29,30.17,29.90,10,9,8,7,3,,0.00,6,,54
2012-12-13,71,60,48,46,43,32,76,58,30,30.38,30.21,29.95,10,8,8,7,2,,0.00,6,,37
2012-12-14,82,64,46,45,40,36,81,49,21,30.36,30.19,29.90,10,9,8,12,2,,0.00,2,,327
2012-12-15,82,64,46,43,38,36,71,44,20,30.29,30.12,29.80,10,9,8,6,1,,0.00,2,,343
2012-12-16,84,65,46,45,36,30,71,42,18,30.27,30.08,29.76,10,9,8,13,4,,0.00,3,,299
2012-12-17,82,63,44,39,35,28,66,39,17,30.27,30.06,29.72,10,9,8,10,4,,0.00,5,,37
2012-12-18,82,63,44,43,39,34,71,44,21,30.27,30.06,29.73,10,9,7,8,4,,0.00,0,,35
2012-12-19,80,63,46,48,40,36,76,48,20,30.27,30.08,29.75,10,8,6,15,4,,0.00,1,,273
2012-12-20,82,62,42,43,38,32,76,48,16,30.35,30.14,29.80,10,8,7,16,4,,0.00,4,,61
2012-12-21,75,60,44,34,30,27,50,35,22,30.41,30.23,29.98,10,9,8,14,8,,0.00,1,,66
2012-12-22,78,60,41,34,31,28,65,41,20,30.41,30.22,29.96,9,8,8,17,5,,0.00,4,,54
2012-12-23,82,60,39,34,31,30,81,34,16,30.36,30.15,29.81,10,9,8,7,1,,0.00,3,,27
2012-12-24,82,63,44,34,31,30,57,34,16,30.24,30.04,29.73,10,8,8,13,2,,0.00,4,,261
2012-12-25,78,61,44,37,27,14,61,32,10,30.21,30.04,29.74,10,9,8,12,4,,0.00,5,,355
2012-12-26,75,58,42,43,28,16,55,31,19,30.21,30.04,29.78,10,9,7,8,3,,0.00,6,,231
2012-12-27,78,62,46,46,40,34,93,51,20,30.21,30.03,29.66,10,8,8,16,3,,0.00,6,,247
2012-12-28,78,61,44,39,33,25,81,40,17,30.24,30.05,29.77,10,9,8,10,3,,0.00,5,,301
2012-12-29,80,63,46,39,33,30,57,35,17,30.29,30.15,29.85,10,9,8,14,3,,0.00,2,,88
2012-12-30,78,60,42,43,38,37,81,51,24,30.35,30.18,29.90,10,8,7,7,1,,0.00,5,,11
2012-12-31,69,60,50,55,45,37,100,60,43,30.33,30.16,29.86,10,8,5,14,2,,0.00,7,,243